Time;durP1;ratioP1;P1;durP2;ratioP2;P2;SDS_P1;SDS_P2;PMS_P1;PMS_P2;Temp;Humidity;BMP_temperature;BMP_pressure;BME280_temperature;BME280_humidity;BME280_pressure;Samples;Min_cycle;Max_cycle;Signal;HPM_P1;HPM_P2
2021/12/01 00:01:41;;;;;;;1.90;0.98;;;-1.00;99.90;;;;;;4841207;29;20106;-63
2021/12/01 00:04:08;;;;;;;2.45;1.00;;;-1.00;99.90;;;;;;4843934;29;20058;-64
2021/12/01 00:06:35;;;;;;;2.83;1.20;;;-1.10;99.90;;;;;;4841405;29;20057;-67
2021/12/01 00:09:04;;;;;;;1.58;1.25;;;-1.10;99.90;;;;;;4845716;29;20057;-65
2021/12/01 00:11:32;;;;;;;1.00;0.85;;;-1.10;99.90;;;;;;4843455;29;20053;-64
2021/12/01 00:13:58;;;;;;;0.55;0.55;;;-1.10;99.90;;;;;;4850031;29;20054;-64
2021/12/01 00:16:26;;;;;;;4.53;1.10;;;-1.10;99.90;;;;;;4841150;29;20062;-68
2021/12/01 00:18:53;;;;;;;2.47;1.00;;;-1.10;99.90;;;;;;4846651;29;20052;-64
2021/12/01 00:21:20;;;;;;;2.20;0.60;;;-1.10;99.90;;;;;;4842594;29;20057;-65
2021/12/01 00:23:47;;;;;;;3.00;0.90;;;-1.10;99.90;;;;;;4849414;29;20049;-63
2021/12/01 00:26:14;;;;;;;0.75;0.73;;;-1.10;99.90;;;;;;4842273;29;20057;-65
2021/12/01 00:28:41;;;;;;;3.22;0.90;;;-1.20;99.90;;;;;;4842507;29;20390;-66
2021/12/01 00:31:08;;;;;;;4.97;0.93;;;-1.20;99.90;;;;;;4840862;29;20057;-64
2021/12/01 00:33:35;;;;;;;1.85;1.10;;;-1.20;99.90;;;;;;4842186;29;20087;-63
2021/12/01 00:36:03;;;;;;;1.40;0.80;;;-1.20;99.90;;;;;;4844188;29;20463;-64
2021/12/01 00:38:30;;;;;;;2.35;0.95;;;-1.20;99.90;;;;;;4841384;29;20057;-64
2021/12/01 00:40:57;;;;;;;1.90;0.88;;;-1.20;99.90;;;;;;4842692;29;20090;-68
2021/12/01 00:43:26;;;;;;;7.28;1.20;;;-1.20;99.90;;;;;;4846066;29;20045;-64
2021/12/01 00:45:56;;;;;;;0.82;0.80;;;-1.20;99.90;;;;;;4842213;29;20144;-67
2021/12/01 00:48:24;;;;;;;1.67;1.00;;;-1.30;99.90;;;;;;4844878;29;20061;-64
2021/12/01 00:50:52;;;;;;;0.55;0.50;;;-1.20;99.90;;;;;;4847161;29;20466;-67
2021/12/01 00:53:19;;;;;;;3.30;1.00;;;-1.30;99.90;;;;;;4842242;29;20054;-64
2021/12/01 00:55:47;;;;;;;1.17;0.73;;;-1.30;99.90;;;;;;4845576;29;20054;-68
2021/12/01 00:58:14;;;;;;;2.70;1.15;;;-1.30;99.90;;;;;;4842248;29;20042;-69
2021/12/01 01:00:43;;;;;;;1.83;1.00;;;-1.30;99.90;;;;;;4842578;29;20133;-66
2021/12/01 01:03:10;;;;;;;1.48;0.70;;;-1.30;99.90;;;;;;4847679;29;20390;-64
2021/12/01 01:05:38;;;;;;;1.08;0.85;;;-1.30;99.90;;;;;;4847081;29;20050;-69
2021/12/01 01:08:06;;;;;;;1.35;0.75;;;-1.30;99.90;;;;;;4843184;29;20084;-65
2021/12/01 01:19:02;;;;;;;1.27;0.65;;;-1.30;99.90;;;;;;4818420;29;20050;-69
2021/12/01 01:21:33;;;;;;;4.05;0.70;;;-1.20;99.90;;;;;;4836350;29;20175;-65
2021/12/01 01:24:02;;;;;;;1.25;0.85;;;-1.20;99.90;;;;;;4842159;29;20102;-64
2021/12/01 01:26:30;;;;;;;3.97;1.67;;;-1.20;99.90;;;;;;4844031;29;20052;-64
2021/12/01 01:28:58;;;;;;;2.25;0.85;;;-1.20;99.90;;;;;;4829805;29;20103;-63
2021/12/01 01:31:25;;;;;;;0.85;0.70;;;-1.20;99.90;;;;;;4841981;29;20078;-67
2021/12/01 01:33:52;;;;;;;2.10;0.65;;;-1.20;99.90;;;;;;4844283;29;20058;-65
2021/12/01 01:36:20;;;;;;;0.90;0.77;;;-1.20;99.90;;;;;;4840977;29;20060;-65
2021/12/01 01:38:47;;;;;;;1.40;0.57;;;-1.20;99.90;;;;;;4844419;29;20049;-64
2021/12/01 01:41:14;;;;;;;1.15;0.73;;;-1.20;99.90;;;;;;4841572;29;20050;-65
2021/12/01 01:43:44;;;;;;;2.05;0.75;;;-1.30;99.90;;;;;;4841497;29;20061;-64
2021/12/01 01:46:12;;;;;;;1.90;0.82;;;-1.20;99.90;;;;;;4840309;29;20670;-69
2021/12/01 01:48:56;;;;;;;0.73;0.73;;;-1.20;99.90;;;;;;4844200;29;20107;-63
2021/12/01 01:51:25;;;;;;;1.15;0.70;;;-1.20;99.90;;;;;;4843318;29;20045;-63
2021/12/01 01:53:54;;;;;;;1.45;1.27;;;-1.20;99.90;;;;;;4842148;29;20053;-64
2021/12/01 01:56:22;;;;;;;2.97;1.08;;;-1.20;99.90;;;;;;4842400;29;20682;-67
2021/12/01 01:58:50;;;;;;;5.47;1.38;;;-1.20;99.90;;;;;;4842882;29;20063;-67
2021/12/01 02:03:51;;;;;;;0.85;0.50;;;-1.20;99.90;;;;;;4839967;29;20121;-63
2021/12/01 02:06:25;;;;;;;1.13;0.70;;;-1.30;99.90;;;;;;4842281;29;20591;-64
2021/12/01 02:08:58;;;;;;;2.08;0.57;;;-1.20;99.90;;;;;;4842010;29;20057;-64
2021/12/01 02:11:27;;;;;;;0.90;0.52;;;-1.20;99.90;;;;;;4843055;29;20417;-63
2021/12/01 02:13:54;;;;;;;2.00;0.55;;;-1.20;99.90;;;;;;4845709;29;20692;-66
2021/12/01 02:16:22;;;;;;;1.90;0.60;;;-1.20;99.90;;;;;;4839192;29;20073;-63
2021/12/01 02:18:50;;;;;;;0.70;0.30;;;-1.20;99.90;;;;;;4846380;29;20087;-64
2021/12/01 02:21:26;;;;;;;0.77;0.70;;;-1.20;99.90;;;;;;4840326;29;20126;-65
2021/12/01 02:23:59;;;;;;;0.93;0.90;;;-1.20;99.90;;;;;;4840579;29;20061;-67
2021/12/01 02:26:29;;;;;;;1.85;1.27;;;-1.20;99.90;;;;;;4840003;29;20069;-67
2021/12/01 02:28:58;;;;;;;0.73;0.60;;;-1.20;99.90;;;;;;4841761;29;20054;-67
2021/12/01 02:31:28;;;;;;;0.60;0.45;;;-1.20;99.90;;;;;;4842359;29;20062;-66
2021/12/01 02:33:57;;;;;;;0.85;0.50;;;-1.20;99.90;;;;;;4840568;29;20058;-65
2021/12/01 02:36:24;;;;;;;3.58;0.70;;;-1.20;99.90;;;;;;4837643;29;20482;-64
2021/12/01 02:38:51;;;;;;;0.50;0.40;;;-1.20;99.90;;;;;;4846862;29;20050;-64
2021/12/01 02:41:30;;;;;;;1.02;0.95;;;-1.20;99.90;;;;;;4836906;29;20691;-73
2021/12/01 02:43:59;;;;;;;0.70;0.65;;;-1.20;99.90;;;;;;4840706;29;20055;-63
2021/12/01 02:46:27;;;;;;;1.50;0.80;;;-1.20;99.90;;;;;;4841558;29;20054;-70
2021/12/01 02:48:55;;;;;;;1.77;0.77;;;-1.10;99.90;;;;;;4844313;29;20042;-71
2021/12/01 02:51:27;;;;;;;0.60;0.45;;;-1.20;99.90;;;;;;4839879;29;20102;-65
2021/12/01 02:53:55;;;;;;;6.10;0.95;;;-1.20;99.90;;;;;;4841252;29;20054;-66
2021/12/01 02:56:29;;;;;;;0.50;0.43;;;-1.20;99.90;;;;;;4842790;29;20054;-64
2021/12/01 02:58:58;;;;;;;1.90;0.80;;;-1.20;99.90;;;;;;4837545;29;20570;-67
2021/12/01 03:01:26;;;;;;;0.50;0.40;;;-1.20;99.90;;;;;;4848484;29;20119;-65
2021/12/01 03:03:53;;;;;;;0.68;0.57;;;-1.20;99.90;;;;;;4839454;29;20129;-64
2021/12/01 03:06:24;;;;;;;0.52;0.47;;;-1.20;99.90;;;;;;4839331;29;20042;-63
2021/12/01 03:08:52;;;;;;;0.80;0.50;;;-1.20;99.90;;;;;;4855797;29;20102;-66
2021/12/01 03:11:19;;;;;;;0.75;0.63;;;-1.20;99.90;;;;;;4840449;29;20416;-64
2021/12/01 03:13:46;;;;;;;0.50;0.50;;;-1.20;99.90;;;;;;4838417;29;20648;-64
2021/12/01 03:16:15;;;;;;;0.40;0.30;;;-1.20;99.90;;;;;;4839181;29;20106;-63
2021/12/01 03:18:46;;;;;;;1.85;1.20;;;-1.20;99.90;;;;;;4839856;29;20049;-67
2021/12/01 03:21:14;;;;;;;3.50;3.25;;;-1.20;99.90;;;;;;4838928;29;20045;-67
2021/12/01 03:23:41;;;;;;;1.17;0.68;;;-1.20;99.90;;;;;;4843084;29;20500;-63
2021/12/01 03:26:09;;;;;;;3.65;1.10;;;-1.20;99.90;;;;;;4831800;29;20764;-67
2021/12/01 03:28:36;;;;;;;0.82;0.50;;;-1.20;99.90;;;;;;4843455;29;20049;-67
2021/12/01 03:31:03;;;;;;;1.30;0.40;;;-1.20;99.90;;;;;;4840341;29;20073;-64
2021/12/01 03:33:31;;;;;;;1.20;0.25;;;-1.20;99.90;;;;;;4842306;29;20077;-70
2021/12/01 03:35:58;;;;;;;0.73;0.40;;;-1.20;99.90;;;;;;4856166;29;20400;-65
2021/12/01 03:38:27;;;;;;;1.23;0.82;;;-1.20;99.90;;;;;;4835507;29;20056;-64
2021/12/01 03:40:57;;;;;;;0.52;0.52;;;-1.20;99.90;;;;;;4842714;29;20049;-64
2021/12/01 03:43:24;;;;;;;3.20;0.40;;;-1.30;99.90;;;;;;4836373;29;20497;-64
2021/12/01 03:45:51;;;;;;;1.33;0.60;;;-1.30;99.90;;;;;;4841638;29;20094;-64
2021/12/01 03:48:18;;;;;;;1.15;0.40;;;-1.20;99.90;;;;;;4838067;29;20041;-64
2021/12/01 03:50:49;;;;;;;1.85;0.77;;;-1.20;99.90;;;;;;4844315;29;20057;-68
2021/12/01 03:53:18;;;;;;;1.27;0.50;;;-1.20;99.90;;;;;;4838517;29;20056;-64
2021/12/01 03:55:46;;;;;;;0.70;0.45;;;-1.20;99.90;;;;;;4840814;29;20046;-63
2021/12/01 03:58:13;;;;;;;1.45;0.73;;;-1.20;99.90;;;;;;4838692;29;20073;-64
2021/12/01 04:00:41;;;;;;;1.23;0.55;;;-1.20;99.90;;;;;;4841108;29;20061;-64
2021/12/01 04:03:08;;;;;;;3.40;0.47;;;-1.20;99.90;;;;;;4846731;29;20518;-64
2021/12/01 04:05:35;;;;;;;0.50;0.40;;;-1.20;99.90;;;;;;4848351;29;20057;-68
2021/12/01 04:08:05;;;;;;;1.05;0.45;;;-1.20;99.90;;;;;;4852586;29;20057;-64
2021/12/01 04:10:32;;;;;;;0.75;0.68;;;-1.10;99.90;;;;;;4837831;29;20054;-64
2021/12/01 04:12:59;;;;;;;2.03;0.30;;;-1.20;99.90;;;;;;4841243;29;20086;-67
2021/12/01 04:15:27;;;;;;;3.72;0.93;;;-1.10;99.90;;;;;;4839713;29;20112;-65
2021/12/01 04:17:54;;;;;;;0.93;0.50;;;-1.10;99.90;;;;;;4847637;29;20057;-69
2021/12/01 04:20:21;;;;;;;0.80;0.45;;;-1.10;99.90;;;;;;4840623;29;20046;-64
2021/12/01 04:22:49;;;;;;;2.38;0.80;;;-1.10;99.90;;;;;;4839619;29;20455;-64
2021/12/01 04:25:17;;;;;;;0.35;0.35;;;-1.10;99.90;;;;;;4839684;29;20045;-66
2021/12/01 04:27:44;;;;;;;2.60;0.40;;;-1.00;99.90;;;;;;4838672;29;20054;-65
2021/12/01 04:30:15;;;;;;;2.05;0.55;;;-1.00;99.90;;;;;;4840217;29;20110;-64
2021/12/01 04:32:42;;;;;;;3.05;0.60;;;-1.00;99.90;;;;;;4832311;29;20053;-68
2021/12/01 04:35:09;;;;;;;0.77;0.45;;;-0.90;99.90;;;;;;4845231;29;20773;-64
2021/12/01 04:37:38;;;;;;;2.53;0.68;;;-1.00;99.90;;;;;;4842633;29;20109;-67
2021/12/01 04:40:06;;;;;;;0.45;0.38;;;-0.90;99.90;;;;;;4842533;29;20108;-66
2021/12/01 04:42:34;;;;;;;1.73;0.75;;;-0.90;99.90;;;;;;4846738;29;20102;-65
2021/12/01 04:45:02;;;;;;;2.80;0.73;;;-0.90;99.90;;;;;;4840627;29;20054;-65
2021/12/01 04:47:33;;;;;;;1.65;0.50;;;-1.00;99.90;;;;;;4838830;29;20481;-68
2021/12/01 04:50:00;;;;;;;1.50;0.60;;;-1.00;99.90;;;;;;4840695;29;20072;-64
2021/12/01 04:52:27;;;;;;;3.45;0.43;;;-0.90;99.90;;;;;;4837254;29;20050;-73
2021/12/01 04:54:54;;;;;;;4.18;0.88;;;-0.90;99.90;;;;;;4845728;29;20130;-65
2021/12/01 04:57:21;;;;;;;1.98;0.55;;;-0.90;99.90;;;;;;4847589;29;20121;-64
2021/12/01 04:59:49;;;;;;;0.50;0.50;;;-0.90;99.90;;;;;;4845241;29;20054;-66
2021/12/01 05:02:16;;;;;;;1.05;0.40;;;-0.80;99.90;;;;;;4848446;29;20446;-66
2021/12/01 05:04:43;;;;;;;1.23;0.73;;;-0.90;99.90;;;;;;4843083;29;20509;-63
2021/12/01 05:07:11;;;;;;;0.65;0.55;;;-0.90;99.90;;;;;;4844292;29;20461;-64
2021/12/01 05:09:38;;;;;;;3.85;0.73;;;-0.90;99.90;;;;;;4840165;29;20442;-64
2021/12/01 05:12:07;;;;;;;2.50;1.38;;;-0.80;99.90;;;;;;4841072;29;20053;-65
2021/12/01 05:14:38;;;;;;;2.03;0.80;;;-0.90;99.90;;;;;;4836624;29;20054;-65
2021/12/01 05:17:06;;;;;;;1.55;1.00;;;-0.90;99.90;;;;;;4842410;29;20050;-64
2021/12/01 05:19:34;;;;;;;1.00;0.90;;;-0.90;99.90;;;;;;4841245;29;20046;-64
2021/12/01 05:22:02;;;;;;;1.50;0.50;;;-0.90;99.90;;;;;;4842365;29;20046;-67
2021/12/01 05:24:29;;;;;;;3.35;1.63;;;-0.80;99.90;;;;;;4843881;29;20106;-65
2021/12/01 05:26:56;;;;;;;1.52;1.42;;;-0.90;99.90;;;;;;4847867;29;20049;-65
2021/12/01 05:29:24;;;;;;;2.28;0.60;;;-0.90;99.90;;;;;;4843290;29;20057;-66
2021/12/01 05:31:55;;;;;;;2.42;0.90;;;-0.90;99.90;;;;;;4842397;29;20062;-64
2021/12/01 05:34:23;;;;;;;2.00;0.80;;;-0.80;99.90;;;;;;4839656;29;20099;-67
2021/12/01 05:36:51;;;;;;;1.33;0.63;;;-0.80;99.90;;;;;;4843325;29;20059;-72
2021/12/01 05:39:18;;;;;;;0.90;0.55;;;-0.80;99.90;;;;;;4847374;29;20045;-64
2021/12/01 05:41:45;;;;;;;3.15;1.27;;;-0.80;99.90;;;;;;4847451;29;20046;-65
2021/12/01 05:44:12;;;;;;;2.25;0.63;;;-0.80;99.90;;;;;;4838820;29;20110;-68
2021/12/01 05:46:39;;;;;;;4.78;1.65;;;-0.80;99.90;;;;;;4844206;29;20157;-63
2021/12/01 05:49:06;;;;;;;3.03;2.00;;;-0.80;99.90;;;;;;4840200;29;20046;-67
2021/12/01 05:51:33;;;;;;;3.15;1.27;;;-0.80;99.90;;;;;;4841262;29;20787;-69
2021/12/01 05:54:02;;;;;;;4.07;1.17;;;-0.70;99.90;;;;;;4837777;29;20104;-65
2021/12/01 05:56:30;;;;;;;4.35;1.42;;;-0.70;99.90;;;;;;4838052;29;20498;-64
2021/12/01 05:58:57;;;;;;;1.25;0.68;;;-0.70;99.90;;;;;;4841736;29;20489;-70
2021/12/01 06:01:25;;;;;;;2.40;2.20;;;-0.60;99.90;;;;;;4839796;29;20046;-64
2021/12/01 06:03:52;;;;;;;3.63;1.42;;;-0.60;99.90;;;;;;4839414;29;20141;-64
2021/12/01 06:06:19;;;;;;;5.38;1.70;;;-0.60;99.90;;;;;;4836158;29;20069;-64
2021/12/01 06:08:46;;;;;;;1.08;0.68;;;-0.60;99.90;;;;;;4846110;29;20061;-66
2021/12/01 06:11:13;;;;;;;3.92;1.60;;;-0.50;99.90;;;;;;4838556;29;20053;-81
2021/12/01 06:13:43;;;;;;;2.75;1.17;;;-0.50;99.90;;;;;;4840956;29;20057;-65
2021/12/01 06:16:10;;;;;;;5.05;1.30;;;-0.50;99.90;;;;;;4840058;29;20105;-65
2021/12/01 06:18:37;;;;;;;5.40;1.40;;;-0.50;99.90;;;;;;4843310;29;20053;-69
2021/12/01 06:21:04;;;;;;;3.65;0.90;;;-0.50;99.90;;;;;;4845473;29;20446;-66
2021/12/01 06:23:31;;;;;;;4.20;0.98;;;-0.50;99.90;;;;;;4840128;29;20053;-64
2021/12/01 06:25:58;;;;;;;1.45;0.57;;;-0.50;99.90;;;;;;4841994;29;20057;-64
2021/12/01 06:28:25;;;;;;;3.78;0.95;;;-0.40;99.90;;;;;;4839728;29;20057;-67
2021/12/01 06:30:52;;;;;;;3.50;1.00;;;-0.40;99.90;;;;;;4840620;29;20054;-71
2021/12/01 06:33:22;;;;;;;1.85;0.52;;;-0.40;99.90;;;;;;4842930;29;20046;-65
2021/12/01 06:35:51;;;;;;;5.13;1.02;;;-0.40;99.90;;;;;;4843703;29;20077;-66
2021/12/01 06:38:20;;;;;;;2.72;0.90;;;-0.40;99.90;;;;;;4838715;29;20046;-69
2021/12/01 06:40:48;;;;;;;1.95;1.10;;;-0.40;99.90;;;;;;4842402;29;20049;-69
2021/12/01 06:43:15;;;;;;;3.65;0.95;;;-0.40;99.90;;;;;;4835902;29;20497;-64
2021/12/01 06:45:43;;;;;;;6.57;1.15;;;-0.40;99.90;;;;;;4841578;29;20057;-66
2021/12/01 06:48:10;;;;;;;4.00;0.75;;;-0.40;99.90;;;;;;4838638;29;20081;-66
2021/12/01 06:50:37;;;;;;;1.30;1.20;;;-0.40;99.90;;;;;;4840747;29;20097;-65
2021/12/01 06:53:04;;;;;;;1.50;1.10;;;-0.40;99.90;;;;;;4839888;29;20430;-67
2021/12/01 06:55:31;;;;;;;3.25;0.93;;;-0.40;99.90;;;;;;4848667;29;20049;-64
2021/12/01 06:57:59;;;;;;;4.03;0.70;;;-0.40;99.90;;;;;;4843140;29;20056;-64
2021/12/01 07:00:26;;;;;;;3.72;0.70;;;-0.40;99.90;;;;;;4846701;29;20110;-68
2021/12/01 07:02:53;;;;;;;0.77;0.50;;;-0.40;99.90;;;;;;4840375;29;20110;-64
2021/12/01 07:05:21;;;;;;;4.30;0.73;;;-0.40;99.90;;;;;;4841179;29;20065;-64
2021/12/01 07:07:48;;;;;;;0.35;0.35;;;-0.40;99.90;;;;;;4846470;29;20404;-68
2021/12/01 07:10:16;;;;;;;2.72;0.77;;;-0.30;99.90;;;;;;4840201;29;20113;-69
2021/12/01 07:12:43;;;;;;;6.10;0.65;;;-0.30;99.90;;;;;;4839925;29;20045;-65
2021/12/01 07:15:12;;;;;;;7.40;3.08;;;-0.30;99.90;;;;;;4843766;29;20077;-65
2021/12/01 07:17:40;;;;;;;1.98;0.60;;;-0.30;99.90;;;;;;4836089;29;20102;-64
2021/12/01 07:20:08;;;;;;;3.50;0.50;;;-0.30;99.90;;;;;;4837288;29;20054;-68
2021/12/01 07:22:35;;;;;;;4.70;1.35;;;-0.30;99.90;;;;;;4843553;29;20568;-64
2021/12/01 07:25:03;;;;;;;3.80;1.10;;;-0.30;99.90;;;;;;4848369;29;20049;-65
2021/12/01 07:27:30;;;;;;;6.35;0.80;;;-0.30;99.90;;;;;;4837768;29;20057;-65
2021/12/01 07:29:57;;;;;;;6.78;0.98;;;-0.30;99.90;;;;;;4845522;29;20057;-69
2021/12/01 07:32:24;;;;;;;2.53;0.85;;;-0.30;99.90;;;;;;4843517;29;20046;-65
2021/12/01 07:34:51;;;;;;;1.77;1.20;;;-0.30;99.90;;;;;;4840249;29;20042;-64
2021/12/01 07:37:19;;;;;;;4.65;1.25;;;-0.30;99.90;;;;;;4847417;29;20054;-68
2021/12/01 07:39:46;;;;;;;3.13;0.98;;;-0.30;99.90;;;;;;4842159;29;20057;-65
2021/12/01 07:42:14;;;;;;;4.60;1.27;;;-0.30;99.90;;;;;;4841537;29;20102;-65
2021/12/01 07:44:42;;;;;;;5.28;0.95;;;-0.30;99.90;;;;;;4843221;29;20050;-64
2021/12/01 07:47:10;;;;;;;10.18;1.30;;;-0.30;99.90;;;;;;4839988;29;20053;-68
2021/12/01 07:49:38;;;;;;;6.07;0.90;;;-0.30;99.90;;;;;;4846478;29;20620;-64
2021/12/01 07:52:06;;;;;;;2.08;0.75;;;-0.30;99.90;;;;;;4849993;29;20049;-66
2021/12/01 07:54:35;;;;;;;4.20;1.17;;;-0.30;99.90;;;;;;4841027;29;20082;-69
2021/12/01 07:57:02;;;;;;;5.07;0.77;;;-0.30;99.90;;;;;;4838021;29;20050;-64
2021/12/01 07:59:30;;;;;;;5.68;0.88;;;-0.30;99.90;;;;;;4838653;29;20065;-64
2021/12/01 08:01:57;;;;;;;7.35;1.10;;;-0.30;99.90;;;;;;4843195;29;20046;-67
2021/12/01 08:04:25;;;;;;;1.40;0.90;;;-0.30;99.90;;;;;;4842539;29;20046;-65
2021/12/01 08:06:54;;;;;;;3.63;0.70;;;-0.20;99.90;;;;;;4858831;29;20136;-64
2021/12/01 08:09:21;;;;;;;6.22;1.38;;;-0.20;99.90;;;;;;4844083;29;20046;-65
2021/12/01 08:11:48;;;;;;;1.20;0.63;;;-0.20;99.90;;;;;;4842723;29;20105;-64
2021/12/01 08:14:15;;;;;;;1.33;0.77;;;-0.20;99.90;;;;;;4838212;29;20053;-64
2021/12/01 08:16:42;;;;;;;0.90;0.45;;;-0.30;99.90;;;;;;4840053;29;20053;-64
2021/12/01 08:19:09;;;;;;;3.33;1.77;;;-0.30;99.90;;;;;;4842626;29;20050;-66
2021/12/01 08:21:36;;;;;;;2.75;0.68;;;-0.30;99.90;;;;;;4844654;29;20071;-67
2021/12/01 08:24:10;;;;;;;4.25;0.85;;;-0.30;99.90;;;;;;4840241;29;20057;-66
2021/12/01 08:26:38;;;;;;;3.55;1.42;;;-0.30;99.90;;;;;;4840821;29;20089;-65
2021/12/01 08:29:05;;;;;;;4.65;2.35;;;-0.30;99.90;;;;;;4843733;29;20390;-64
2021/12/01 08:31:33;;;;;;;2.85;0.70;;;-0.30;99.90;;;;;;4847210;29;20057;-64
2021/12/01 08:34:00;;;;;;;1.95;0.90;;;-0.20;99.90;;;;;;4851452;29;20064;-64
2021/12/01 08:36:27;;;;;;;0.75;0.50;;;-0.30;99.90;;;;;;4840789;29;20408;-65
2021/12/01 08:38:54;;;;;;;3.20;0.55;;;-0.20;99.90;;;;;;4845475;29;20050;-69
2021/12/01 08:41:21;;;;;;;3.30;0.60;;;-0.20;99.90;;;;;;4845631;29;20130;-75
2021/12/01 08:43:49;;;;;;;1.35;0.90;;;-0.20;99.90;;;;;;4842153;29;20065;-64
2021/12/01 08:46:16;;;;;;;2.40;0.80;;;-0.20;99.90;;;;;;4839369;29;20110;-64
2021/12/01 08:48:43;;;;;;;3.67;1.08;;;-0.20;99.90;;;;;;4846508;29;20045;-66
2021/12/01 08:51:10;;;;;;;5.78;1.63;;;-0.20;99.90;;;;;;4838946;29;20652;-64
2021/12/01 08:53:41;;;;;;;2.03;1.05;;;-0.20;99.90;;;;;;4858803;29;20056;-65
2021/12/01 08:56:09;;;;;;;3.80;1.33;;;-0.20;99.90;;;;;;4844788;29;20042;-64
2021/12/01 08:58:37;;;;;;;1.95;0.93;;;-0.30;99.90;;;;;;4842256;29;20054;-76
2021/12/01 09:01:04;;;;;;;4.53;1.20;;;-0.30;99.90;;;;;;4849710;29;20057;-64
2021/12/01 09:03:32;;;;;;;4.97;0.77;;;-0.30;99.90;;;;;;4848703;29;20053;-65
2021/12/01 09:05:59;;;;;;;1.88;0.88;;;-0.30;99.90;;;;;;4846803;29;20066;-67
2021/12/01 09:08:26;;;;;;;4.28;1.10;;;-0.30;99.90;;;;;;4842986;29;20054;-64
2021/12/01 09:11:02;;;;;;;7.80;1.45;;;-0.30;99.90;;;;;;4841230;29;20142;-64
2021/12/01 09:13:32;;;;;;;2.58;0.90;;;-0.30;99.90;;;;;;4843016;29;20529;-65
2021/12/01 09:15:59;;;;;;;5.25;1.15;;;-0.30;99.90;;;;;;4850573;29;20106;-66
2021/12/01 09:18:29;;;;;;;1.60;0.80;;;-0.30;99.90;;;;;;4850422;29;20148;-65
2021/12/01 09:20:57;;;;;;;4.07;1.83;;;-0.30;99.90;;;;;;4841522;29;20061;-64
2021/12/01 09:23:25;;;;;;;3.30;0.93;;;-0.30;99.90;;;;;;4840102;29;20065;-74
2021/12/01 09:25:52;;;;;;;2.25;0.90;;;-0.30;99.90;;;;;;4846974;29;20054;-67
2021/12/01 09:28:22;;;;;;;4.80;0.98;;;-0.30;99.90;;;;;;4841844;29;20053;-65
2021/12/01 09:30:52;;;;;;;12.93;1.33;;;-0.30;99.90;;;;;;4840673;29;20049;-68
2021/12/01 09:33:20;;;;;;;2.55;1.10;;;-0.40;99.90;;;;;;4846574;29;21274;-65
2021/12/01 09:35:48;;;;;;;0.73;0.73;;;-0.40;99.90;;;;;;4844924;29;20057;-65
2021/12/01 09:38:17;;;;;;;2.38;1.20;;;-0.40;99.90;;;;;;4839964;29;20106;-69
2021/12/01 09:40:49;;;;;;;2.63;1.63;;;-0.30;99.90;;;;;;4844499;29;20547;-67
2021/12/01 09:43:18;;;;;;;1.98;1.77;;;-0.30;99.90;;;;;;4844338;29;20053;-65
2021/12/01 09:45:46;;;;;;;1.67;1.40;;;-0.40;99.90;;;;;;4849593;29;20133;-65
2021/12/01 09:48:14;;;;;;;3.92;1.05;;;-0.40;99.90;;;;;;4838986;29;20075;-65
2021/12/01 09:50:41;;;;;;;2.85;0.90;;;-0.40;99.90;;;;;;4843426;29;20140;-64
2021/12/01 09:53:14;;;;;;;1.83;0.77;;;-0.40;99.90;;;;;;4842623;29;20061;-65
2021/12/01 09:55:41;;;;;;;6.43;1.25;;;-0.40;99.90;;;;;;4839448;29;20049;-64
2021/12/01 09:58:17;;;;;;;4.40;1.23;;;-0.30;99.90;;;;;;4837856;29;20045;-64
2021/12/01 10:00:48;;;;;;;6.72;1.38;;;-0.30;99.90;;;;;;4840817;29;20118;-72
2021/12/01 10:03:16;;;;;;;4.55;1.08;;;-0.30;99.90;;;;;;4838052;29;20458;-64
2021/12/01 10:05:47;;;;;;;2.75;0.98;;;-0.40;99.90;;;;;;4845644;29;20128;-69
2021/12/01 10:08:39;;;;;;;2.85;1.33;;;-0.40;99.90;;;;;;4845842;29;20054;-65
2021/12/01 10:11:12;;;;;;;3.70;1.73;;;-0.40;99.90;;;;;;4837791;29;20058;-69
2021/12/01 10:13:44;;;;;;;8.52;1.52;;;-0.50;99.90;;;;;;4839219;29;20658;-65
2021/12/01 10:16:14;;;;;;;1.58;1.00;;;-0.50;99.90;;;;;;4839384;29;20105;-65
2021/12/01 10:19:01;;;;;;;8.18;1.15;;;-0.50;99.90;;;;;;4859354;29;20476;-65
2021/12/01 10:21:40;;;;;;;1.67;1.30;;;-0.50;99.90;;;;;;4838237;29;20054;-68
2021/12/01 10:24:17;;;;;;;3.72;1.33;;;-0.50;99.90;;;;;;4842233;29;20050;-68
2021/12/01 10:26:47;;;;;;;3.60;1.42;;;-0.60;99.90;;;;;;4842352;29;20054;-69
2021/12/01 10:29:23;;;;;;;5.63;1.40;;;-0.60;99.90;;;;;;4838107;29;20062;-64
2021/12/01 10:31:57;;;;;;;1.55;1.13;;;-0.60;99.90;;;;;;4843091;29;20072;-64
2021/12/01 10:34:31;;;;;;;1.88;1.20;;;-0.60;99.90;;;;;;4839224;29;20137;-66
2021/12/01 10:37:29;;;;;;;5.65;2.25;;;-0.60;99.90;;;;;;4839654;29;20046;-64
2021/12/01 10:40:08;;;;;;;1.55;0.70;;;-0.60;99.90;;;;;;4837563;29;20092;-64
2021/12/01 10:42:51;;;;;;;2.70;0.80;;;-0.60;99.90;;;;;;4835218;29;20133;-65
2021/12/01 10:45:21;;;;;;;7.85;1.83;;;-0.60;99.90;;;;;;4836019;29;20046;-65
2021/12/01 10:47:48;;;;;;;3.40;0.98;;;-0.60;99.90;;;;;;4843344;29;20075;-64
2021/12/01 10:50:18;;;;;;;2.33;1.35;;;-0.60;99.90;;;;;;4838132;29;20057;-71
2021/12/01 10:52:49;;;;;;;9.37;2.00;;;-0.60;99.90;;;;;;4841413;29;20049;-64
2021/12/01 10:55:16;;;;;;;13.68;1.52;;;-0.60;99.90;;;;;;4841267;29;20301;-65
2021/12/01 10:57:47;;;;;;;5.25;1.15;;;-0.60;99.90;;;;;;4845495;29;20057;-64
2021/12/01 11:00:43;;;;;;;3.10;1.67;;;-0.60;99.90;;;;;;4840000;29;20103;-65
2021/12/01 11:03:13;;;;;;;3.85;1.75;;;-0.60;99.90;;;;;;4837666;29;20055;-64
2021/12/01 11:05:50;;;;;;;3.78;1.30;;;-0.60;99.90;;;;;;4839653;29;20047;-65
2021/12/01 11:08:22;;;;;;;4.70;1.58;;;-0.60;99.90;;;;;;4837458;29;20190;-69
2021/12/01 11:11:13;;;;;;;7.32;1.30;;;-0.60;99.90;;;;;;4838143;29;20428;-73
2021/12/01 11:14:11;;;;;;;1.42;1.00;;;-0.70;99.90;;;;;;4835791;29;20064;-67
2021/12/01 11:16:40;;;;;;;4.80;1.33;;;-0.60;99.90;;;;;;4867683;29;20568;-66
2021/12/01 11:19:08;;;;;;;3.20;1.05;;;-0.70;99.90;;;;;;4869809;29;20336;-65
2021/12/01 11:21:38;;;;;;;2.40;1.23;;;-0.70;99.90;;;;;;4846208;29;20060;-74
2021/12/01 11:24:12;;;;;;;1.20;1.00;;;-0.70;99.90;;;;;;4841920;29;20045;-68
2021/12/01 11:26:44;;;;;;;2.42;1.10;;;-0.70;99.90;;;;;;4837927;29;20633;-64
2021/12/01 11:29:31;;;;;;;2.55;1.13;;;-0.60;99.90;;;;;;4840058;29;20054;-65
2021/12/01 11:32:00;;;;;;;2.67;1.58;;;-0.70;99.90;;;;;;4828177;29;20055;-64
2021/12/01 11:34:27;;;;;;;6.43;1.05;;;-0.70;99.90;;;;;;4818063;29;20464;-65
2021/12/01 11:36:54;;;;;;;6.25;1.45;;;-0.60;99.90;;;;;;4820194;29;20058;-64
2021/12/01 11:39:24;;;;;;;6.45;1.20;;;-0.60;99.90;;;;;;4826338;29;20050;-65
2021/12/01 11:41:54;;;;;;;7.15;1.20;;;-0.60;99.90;;;;;;4822100;29;21478;-64
2021/12/01 11:44:22;;;;;;;3.42;0.95;;;-0.60;99.90;;;;;;4821229;29;20050;-65
2021/12/01 11:46:50;;;;;;;8.38;2.03;;;-0.70;99.90;;;;;;4821746;29;20059;-66
2021/12/01 11:49:21;;;;;;;2.25;0.98;;;-0.60;99.90;;;;;;4819678;29;20046;-65
2021/12/01 11:51:53;;;;;;;2.25;0.82;;;-0.60;99.90;;;;;;4817545;29;20050;-65
2021/12/01 11:54:22;;;;;;;2.05;1.40;;;-0.60;99.90;;;;;;4820211;29;20116;-69
2021/12/01 11:56:56;;;;;;;3.63;1.08;;;-0.60;99.90;;;;;;4821637;29;20061;-65
2021/12/01 11:59:32;;;;;;;2.88;1.52;;;-0.60;99.90;;;;;;4825386;29;20045;-65
2021/12/01 12:02:24;;;;;;;1.67;0.73;;;-0.60;99.90;;;;;;4814807;29;20050;-65
2021/12/01 12:04:56;;;;;;;1.02;0.88;;;-0.60;99.90;;;;;;4842385;29;20052;-65
2021/12/01 12:07:26;;;;;;;3.35;1.05;;;-0.60;99.90;;;;;;4842115;29;20050;-65
2021/12/01 12:10:07;;;;;;;1.15;1.00;;;-0.60;99.90;;;;;;4843805;29;20073;-66
2021/12/01 12:12:45;;;;;;;1.23;0.82;;;-0.60;99.90;;;;;;4842888;29;20066;-65
2021/12/01 12:15:42;;;;;;;3.55;1.15;;;-0.50;99.90;;;;;;4842602;29;20057;-76
2021/12/01 12:18:13;;;;;;;1.88;1.25;;;-0.50;99.90;;;;;;4827266;29;20046;-65
2021/12/01 12:20:54;;;;;;;2.47;1.30;;;-0.50;99.90;;;;;;4860362;29;20115;-65
2021/12/01 12:23:32;;;;;;;6.35;1.38;;;-0.50;99.90;;;;;;4843288;29;20114;-65
2021/12/01 12:25:59;;;;;;;8.63;1.40;;;-0.50;99.90;;;;;;4853772;29;20054;-66
2021/12/01 12:28:38;;;;;;;3.13;1.45;;;-0.50;99.90;;;;;;4836151;29;20081;-66
2021/12/01 12:31:26;;;;;;;1.52;1.05;;;-0.40;99.90;;;;;;4841978;29;20054;-73
2021/12/01 12:34:03;;;;;;;9.82;1.38;;;-0.40;99.90;;;;;;4842992;29;20067;-64
2021/12/01 12:36:55;;;;;;;3.25;1.38;;;-0.50;99.90;;;;;;4841251;29;20050;-65
2021/12/01 12:39:28;;;;;;;10.13;2.50;;;-0.40;99.90;;;;;;4850251;29;20113;-66
2021/12/01 12:41:55;;;;;;;23.05;2.35;;;-0.50;99.90;;;;;;4841752;29;20608;-64
2021/12/01 12:44:31;;;;;;;5.25;1.83;;;-0.50;99.90;;;;;;4840853;29;20128;-66
2021/12/01 12:47:30;;;;;;;13.95;2.10;;;-0.50;99.90;;;;;;4842253;29;20137;-65
2021/12/01 12:50:13;;;;;;;1.40;1.20;;;-0.50;99.90;;;;;;4841183;29;20048;-69
2021/12/01 12:52:50;;;;;;;3.05;1.17;;;-0.50;99.90;;;;;;4830693;29;20058;-65
2021/12/01 12:55:22;;;;;;;10.93;1.55;;;-0.50;99.90;;;;;;4842622;29;20076;-68
2021/12/01 12:58:00;;;;;;;3.95;1.75;;;-0.50;99.90;;;;;;4851377;29;20057;-64
2021/12/01 13:00:34;;;;;;;8.95;1.60;;;-0.60;99.90;;;;;;4840928;29;20049;-72
2021/12/01 13:03:21;;;;;;;5.68;2.00;;;-0.60;99.90;;;;;;4842844;29;20052;-65
2021/12/01 13:05:56;;;;;;;7.88;3.05;;;-0.60;99.90;;;;;;4843616;29;20133;-69
2021/12/01 13:08:36;;;;;;;9.07;3.78;;;-0.60;99.90;;;;;;4841927;29;20050;-69
2021/12/01 13:11:05;;;;;;;7.38;2.13;;;-0.60;99.90;;;;;;4842412;29;20114;-65